EST,Max TemperatureF,Mean TemperatureF,Min TemperatureF,Max Dew PointF,MeanDew PointF,Min DewpointF,Max Humidity, Mean Humidity, Min Humidity, Max Sea Level PressureIn, Mean Sea Level PressureIn, Min Sea Level PressureIn, Max VisibilityMiles, Mean VisibilityMiles, Min VisibilityMiles, Max Wind SpeedMPH, Mean Wind SpeedMPH, Max Gust SpeedMPH,PrecipitationIn, CloudCover, Events, WindDirDegrees
2013-1-1,37,30,21,25,18,7,62,55,44,30.00,29.89,29.83,10,10,10,14,9,24,0.00,5,,296
2013-1-2,28,20,12,16,11,6,85,65,53,30.17,30.05,29.99,10,10,6,12,2,18,0.00,2,,266
2013-1-3,27,17,7,15,7,-2,74,62,51,30.21,30.14,30.05,10,10,9,7,4,,0.00,1,,274
2013-1-4,36,26,17,22,19,13,88,66,54,30.05,29.98,29.92,10,10,9,16,5,26,0.00,4,,248
2013-1-5,39,29,19,22,20,17,92,64,45,30.28,30.17,29.96,10,10,9,16,8,28,0.00,0,,272
2013-1-6,41,34,26,28,26,22,86,75,57,30.23,30.07,29.97,10,8,6,15,4,,0.00,4,,238
2013-1-7,39,29,19,26,21,18,96,76,46,30.41,30.28,30.05,10,9,7,10,3,,0.00,1,,21
2013-1-8,44,30,17,29,23,14,92,78,53,30.42,30.37,30.33,10,9,6,15,2,22,0.00,0,,231
2013-1-9,44,32,19,32,27,17,96,77,58,30.40,30.27,30.13,10,6,4,12,2,17,0.00,1,Rain,242
2013-1-10,45,36,26,27,23,21,88,60,40,30.56,30.44,30.20,10,10,10,13,6,21,0.00,0,,308
2013-1-11,37,30,24,38,31,21,100,90,64,30.54,30.32,30.14,10,6,0,6,1,,0.33,5,Fog-Rain,106
2013-1-12,44,40,37,43,40,37,100,99,93,30.19,30.14,30.11,5,1,0,5,1,,0.04,8,Fog-Rain,87
2013-1-13,48,42,37,46,41,37,100,98,93,30.17,30.11,30.02,8,2,0,8,1,,0.00,8,Fog,172
2013-1-14,54,45,35,51,43,26,100,88,58,30.31,30.07,29.95,10,6,0,13,4,20,0.06,7,Fog-Rain,342
2013-1-15,37,34,32,31,25,22,92,69,59,30.35,30.29,30.25,10,10,6,8,4,,0.08,6,Rain,359
2013-1-16,33,32,30,32,29,24,96,93,70,30.23,30.02,29.86,10,3,0,9,3,,0.48,8,Fog-Rain-Snow,30
2013-1-17,39,34,28,31,25,16,92,68,55,30.11,30.02,29.91,10,10,8,10,6,16,0.00,2,,307
2013-1-18,27,22,18,12,6,0,62,48,37,30.48,30.34,30.04,10,10,10,15,9,21,0.00,2,,317
2013-1-19,45,36,26,27,21,10,64,53,44,30.37,30.15,29.91,10,10,10,15,9,24,0.00,3,,214
2013-1-20,50,39,27,28,21,6,68,48,27,30.01,29.81,29.66,10,10,10,20,11,29,0.00,0,,257
2013-1-21,28,24,17,22,14,4,92,66,41,30.10,29.96,29.81,10,8,2,13,6,21,0.00,6,Snow,225
2013-1-22,21,16,10,14,-2,-10,72,44,34,30.17,30.00,29.81,10,10,10,17,11,28,0.00,2,,281
2013-1-23,17,12,5,0,-5,-8,80,50,33,30.22,30.18,30.14,10,10,10,15,8,23,0.00,1,,280
2013-1-24,21,11,1,0,-3,-6,88,56,32,30.35,30.24,30.16,10,10,10,16,6,28,0.00,0,,291
2013-1-25,21,14,7,16,6,-3,93,68,34,30.40,30.22,30.04,10,7,1,7,4,,0.01,4,Snow,266
2013-1-26,25,18,10,12,6,1,88,63,42,30.35,30.14,30.02,10,10,5,13,6,21,0.00,1,Snow,320
2013-1-27,30,18,6,11,6,0,87,61,27,30.51,30.46,30.35,10,10,10,10,3,20,0.00,0,,308
2013-1-28,33,24,16,31,23,10,96,84,58,30.50,30.25,30.00,10,4,0,9,3,,0.09,7,Fog-Rain-Snow,177
2013-1-29,39,36,33,32,32,30,96,86,75,30.16,30.11,30.00,6,3,1,7,3,,0.01,8,Rain,136
2013-1-30,57,45,35,55,47,30,100,93,76,30.11,29.70,29.39,9,3,0,17,6,30,0.04,8,Fog-Rain,160
2013-1-31,60,44,28,57,40,9,94,72,38,29.72,29.29,29.05,10,7,2,34,18,53,1.01,7,Rain-Thunderstorm,229